Time;durP1;ratioP1;P1;durP2;ratioP2;P2;SDS_P1;SDS_P2;PMS_P1;PMS_P2;Temp;Humidity;BMP_temperature;BMP_pressure;BME280_temperature;BME280_humidity;BME280_pressure;Samples;Min_cycle;Max_cycle;Signal;HPM_P1;HPM_P2
2022/04/17 00:01:31;;;;;;;7.40;4.30;;;;;;;5.35;66.39;101610.67;107427;1247;68435;-75
2022/04/17 00:04:00;;;;;;;5.60;3.90;;;;;;;5.33;66.45;101608.14;107179;1248;73020;-72
2022/04/17 00:06:29;;;;;;;4.60;3.60;;;;;;;5.33;65.64;101590.19;107380;1248;59155;-72
2022/04/17 00:08:58;;;;;;;5.10;3.80;;;;;;;5.31;65.10;101600.46;107407;1247;60073;-73
2022/04/17 00:11:27;;;;;;;4.50;3.30;;;;;;;5.27;64.77;101611.31;107471;1247;72282;-75
2022/04/17 00:13:56;;;;;;;5.60;3.70;;;;;;;5.26;64.62;101615.31;107517;1247;71601;-73
2022/04/17 00:16:24;;;;;;;5.60;3.70;;;;;;;5.20;64.68;101623.48;107231;1248;70204;-75
2022/04/17 00:18:53;;;;;;;5.50;3.40;;;;;;;5.18;64.51;101614.05;107340;1247;74306;-74
2022/04/17 00:21:22;;;;;;;4.90;3.30;;;;;;;5.16;64.41;101610.48;107344;1247;60342;-73
2022/04/17 00:23:51;;;;;;;5.60;2.70;;;;;;;5.12;64.03;101612.18;107355;1249;60349;-71
2022/04/17 00:26:20;;;;;;;4.40;2.60;;;;;;;5.08;63.57;101613.90;107475;1247;71776;-72
2022/04/17 00:28:49;;;;;;;6.20;3.20;;;;;;;5.06;63.33;101613.96;107368;1247;70718;-71
2022/04/17 00:31:18;;;;;;;4.40;2.90;;;;;;;4.99;63.48;101613.16;107425;1247;68797;-70
2022/04/17 00:33:47;;;;;;;5.20;3.00;;;;;;;4.98;63.22;101618.70;107268;1247;71986;-70
2022/04/17 00:36:16;;;;;;;4.00;2.80;;;;;;;4.98;63.16;101616.45;107398;1247;60486;-74
2022/04/17 00:38:46;;;;;;;4.10;2.70;;;;;;;4.99;63.06;101617.84;107356;1247;61058;-75
2022/04/17 00:41:15;;;;;;;4.40;2.80;;;;;;;4.97;62.73;101625.50;107398;1247;70529;-74
2022/04/17 00:43:48;;;;;;;5.70;3.00;;;;;;;4.93;62.82;101634.06;107122;1249;70490;-73
2022/04/17 00:46:17;;;;;;;;;;;;;;;4.94;62.50;101634.41;107352;1247;67961;-74
2022/04/17 00:48:46;;;;;;;4.00;2.60;;;;;;;4.89;62.35;101636.81;107310;1247;71280;-72
2022/04/17 00:51:16;;;;;;;4.00;2.80;;;;;;;4.87;62.16;101637.90;107306;1247;60342;-72
2022/04/17 00:53:45;;;;;;;5.80;3.30;;;;;;;4.87;62.40;101637.93;107314;1247;62313;-73
2022/04/17 00:56:14;;;;;;;6.70;3.00;;;;;;;4.83;62.67;101631.67;107356;1247;72061;-74
2022/04/17 00:58:44;;;;;;;6.80;3.50;;;;;;;4.83;62.56;101631.13;107321;1247;70548;-73
2022/04/17 01:01:13;;;;;;;5.10;3.00;;;;;;;4.81;62.50;101619.47;107215;1249;68818;-74
2022/04/17 01:03:42;;;;;;;6.10;3.50;;;;;;;4.77;62.59;101613.23;107197;1247;71258;-72
2022/04/17 01:06:11;;;;;;;7.60;4.40;;;;;;;4.77;62.84;101611.67;109453;1247;58772;-74
2022/04/17 01:08:41;;;;;;;7.20;3.50;;;;;;;4.74;62.74;101617.27;107297;1247;59072;-74
2022/04/17 01:11:11;;;;;;;6.50;3.90;;;;;;;4.67;62.90;101620.45;107288;1247;73684;-76
2022/04/17 01:13:42;;;;;;;4.20;3.30;;;;;;;4.66;62.77;101622.21;107299;1248;71842;-74
2022/04/17 01:16:13;;;;;;;3.70;2.50;;;;;;;4.63;62.56;101623.88;107360;1247;67938;-73
2022/04/17 01:19:04;;;;;;;6.70;3.50;;;;;;;4.61;62.49;101619.96;107431;1247;73104;-73
2022/04/17 01:21:34;;;;;;;5.80;3.10;;;;;;;4.55;63.01;101613.11;107396;1247;60189;-73
2022/04/17 01:26:56;;;;;;;6.70;3.70;;;;;;;4.50;63.20;101613.09;107261;1247;70561;-72
2022/04/17 01:29:38;;;;;;;11.90;3.50;;;;;;;4.47;63.48;101612.67;107358;1247;69686;-71
2022/04/17 01:32:10;;;;;;;6.50;3.90;;;;;;;4.43;63.82;101611.59;107215;1249;67984;-71
2022/04/17 01:34:40;;;;;;;6.10;3.40;;;;;;;4.42;63.45;101604.05;107108;1249;71346;-74
2022/04/17 01:37:10;;;;;;;5.90;3.30;;;;;;;4.39;63.80;101602.39;107142;1249;60580;-75
2022/04/17 01:39:38;;;;;;;5.00;3.60;;;;;;;4.39;63.84;101606.91;107104;1247;61316;-73
2022/04/17 01:42:08;;;;;;;5.80;3.60;;;;;;;4.37;64.37;101608.33;107166;1247;73829;-75
2022/04/17 01:44:37;;;;;;;4.60;3.40;;;;;;;4.38;64.43;101606.40;107212;1247;71931;-71
2022/04/17 01:47:06;;;;;;;6.90;3.80;;;;;;;4.41;64.50;101606.64;107125;1248;71356;-73
2022/04/17 01:49:36;;;;;;;6.80;3.10;;;;;;;4.41;64.56;101611.64;107120;1249;71934;-76
2022/04/17 01:52:05;;;;;;;6.50;3.70;;;;;;;4.42;64.65;101615.23;107137;1247;60347;-71
2022/04/17 01:54:34;;;;;;;5.30;3.60;;;;;;;4.44;64.46;101611.05;107188;1247;60287;-70
2022/04/17 01:57:04;;;;;;;5.90;3.50;;;;;;;4.45;64.58;101615.66;107183;1248;71824;-72
2022/04/17 01:59:32;;;;;;;6.60;3.60;;;;;;;4.44;64.85;101612.58;107208;1247;70462;-68
2022/04/17 02:02:02;;;;;;;4.70;3.20;;;;;;;4.42;64.67;101610.26;107200;1247;71692;-69
2022/04/17 02:04:35;;;;;;;5.30;3.00;;;;;;;4.42;64.80;101609.36;107233;1247;72720;-66
2022/04/17 02:07:05;;;;;;;6.20;3.50;;;;;;;4.43;64.70;101608.50;106943;1251;59056;-68
2022/04/17 02:09:34;;;;;;;5.00;3.80;;;;;;;4.41;64.73;101600.79;106942;1247;60588;-67
2022/04/17 02:12:03;;;;;;;5.00;3.30;;;;;;;4.36;64.53;101594.21;107189;1247;73611;-68
2022/04/17 02:14:32;;;;;;;4.70;3.30;;;;;;;4.37;64.42;101591.26;107237;1247;69342;-71
2022/04/17 02:17:02;;;;;;;5.80;3.00;;;;;;;4.36;64.26;101588.17;107161;1248;68510;-71
2022/04/17 02:19:32;;;;;;;6.30;3.40;;;;;;;4.34;64.45;101598.08;107196;1247;71224;-72
2022/04/17 02:22:00;;;;;;;6.00;3.30;;;;;;;4.34;64.45;101598.61;107137;1248;59476;-71
2022/04/17 02:24:29;;;;;;;4.00;3.00;;;;;;;4.33;64.56;101598.48;107141;1249;60734;-71
2022/04/17 02:26:58;;;;;;;4.90;3.00;;;;;;;4.32;64.46;101605.38;107114;1247;71979;-70
2022/04/17 02:29:27;;;;;;;4.10;2.90;;;;;;;4.28;64.71;101608.44;107084;1247;70641;-71
2022/04/17 02:31:56;;;;;;;3.90;2.60;;;;;;;4.31;64.55;101612.33;107192;1248;68745;-70
2022/04/17 02:34:25;;;;;;;6.90;3.10;;;;;;;4.31;64.65;101609.23;107198;1248;72405;-73
2022/04/17 02:36:54;;;;;;;4.50;3.00;;;;;;;4.30;64.89;101611.84;107228;1247;59116;-72
2022/04/17 02:39:23;;;;;;;5.00;3.30;;;;;;;4.25;64.87;101607.86;107212;1247;60765;-71
2022/04/17 02:41:52;;;;;;;4.60;3.10;;;;;;;4.28;64.56;101614.83;107174;1247;74760;-70
2022/04/17 02:44:20;;;;;;;4.40;2.80;;;;;;;4.26;64.73;101619.73;107271;1248;73479;-72
2022/04/17 02:49:37;;;;;;;5.30;3.10;;;;;;;4.25;64.58;101608.38;107346;1247;71470;-72
2022/04/17 02:52:06;;;;;;;5.00;3.30;;;;;;;4.21;64.99;101606.41;107276;1247;60349;-74
2022/04/17 02:54:35;;;;;;;4.40;2.80;;;;;;;4.21;64.76;101610.22;107325;1247;59439;-71
2022/04/17 02:57:04;;;;;;;4.60;3.40;;;;;;;4.18;65.22;101611.52;107332;1247;71684;-73
2022/04/17 02:59:33;;;;;;;5.70;3.50;;;;;;;4.17;65.05;101616.73;107370;1247;70692;-70
2022/04/17 03:07:37;;;;;;;5.60;3.10;;;;;;;4.11;65.14;101608.13;107629;1247;60312;-74
2022/04/17 03:10:07;;;;;;;5.00;3.20;;;;;;;4.12;65.16;101602.90;107439;1247;61352;-73
2022/04/17 03:12:37;;;;;;;5.90;3.70;;;;;;;4.12;65.20;101598.45;107667;1247;73979;-75
2022/04/17 03:15:10;;;;;;;4.20;3.00;;;;;;;4.08;65.37;101598.41;107346;1247;71713;-74
2022/04/17 03:17:39;;;;;;;4.60;3.20;;;;;;;4.06;65.42;101594.83;107360;1247;68921;-74
2022/04/17 03:20:09;;;;;;;4.10;2.90;;;;;;;4.06;65.13;101595.86;107340;1249;73350;-74
2022/04/17 03:22:42;;;;;;;4.40;2.90;;;;;;;4.02;65.35;101601.35;107453;1248;61855;-72
2022/04/17 03:25:12;;;;;;;3.30;2.70;;;;;;;4.02;65.31;101604.45;107458;1247;61318;-71
2022/04/17 03:27:43;;;;;;;3.50;2.70;;;;;;;4.01;65.57;101598.27;107357;1247;70744;-69
2022/04/17 03:30:18;;;;;;;4.40;3.20;;;;;;;3.99;65.56;101591.42;107332;1247;72707;-72
2022/04/17 03:32:52;;;;;;;5.40;3.00;;;;;;;3.97;65.45;101589.42;107311;1247;71287;-74
2022/04/17 03:35:21;;;;;;;5.80;3.60;;;;;;;4.00;65.32;101589.69;107321;1246;72678;-75
2022/04/17 03:37:50;;;;;;;5.10;3.30;;;;;;;3.96;65.58;101583.58;107296;1247;59731;-75
2022/04/17 03:40:19;;;;;;;4.90;2.80;;;;;;;3.96;65.79;101584.45;107347;1247;58514;-73
2022/04/17 03:42:49;;;;;;;5.90;4.30;;;;;;;3.95;65.67;101587.73;107312;1247;72894;-72
2022/04/17 03:45:18;;;;;;;6.40;4.00;;;;;;;3.98;65.54;101594.05;107314;1248;73018;-73
2022/04/17 03:47:47;;;;;;;4.90;3.70;;;;;;;4.01;65.63;101603.80;107204;1247;67981;-73
2022/04/17 03:50:16;;;;;;;8.10;3.70;;;;;;;4.00;65.41;101610.02;107241;1247;71509;-74
2022/04/17 03:52:48;;;;;;;4.90;3.10;;;;;;;4.00;65.65;101621.40;107324;1249;61542;-74
2022/04/17 03:55:17;;;;;;;4.20;2.30;;;;;;;4.03;65.54;101624.92;107443;1247;60537;-72
2022/04/17 03:57:46;;;;;;;5.10;3.20;;;;;;;4.04;65.71;101624.02;107381;1247;73704;-72
2022/04/17 04:00:16;;;;;;;4.90;3.70;;;;;;;4.06;65.42;101621.20;107401;1248;72828;-73
2022/04/17 04:02:51;;;;;;;4.90;3.00;;;;;;;4.02;65.50;101614.43;107378;1247;70343;-74
2022/04/17 04:05:20;;;;;;;5.00;3.50;;;;;;;4.07;65.18;101612.03;107449;1247;74414;-75
2022/04/17 04:07:49;;;;;;;4.50;2.70;;;;;;;4.03;65.35;101612.15;107272;1247;62755;-73
2022/04/17 04:10:18;;;;;;;6.00;3.50;;;;;;;4.02;65.25;101611.14;107315;1247;61586;-74
2022/04/17 04:12:46;;;;;;;5.60;3.70;;;;;;;4.09;65.57;101634.55;107387;1248;74604;-74
2022/04/17 04:15:15;;;;;;;4.30;2.70;;;;;;;4.13;65.17;101635.99;107301;1248;71865;-73
2022/04/17 04:17:44;;;;;;;5.40;3.40;;;;;;;4.14;65.13;101641.64;107381;1247;69095;-75
2022/04/17 04:20:13;;;;;;;6.30;3.90;;;;;;;4.12;65.01;101636.37;107303;1247;71680;-75
2022/04/17 04:22:42;;;;;;;4.80;3.20;;;;;;;4.02;65.58;101627.52;107340;1247;58396;-73
2022/04/17 04:25:11;;;;;;;5.80;3.50;;;;;;;4.12;65.41;101628.27;107194;1247;61402;-72
2022/04/17 04:31:09;;;;;;;7.30;3.80;;;;;;;4.10;65.43;101628.31;106498;1256;72858;-73
2022/04/17 04:33:42;;;;;;;7.50;4.10;;;;;;;4.11;65.06;101630.86;107185;1247;71335;-75
2022/04/17 04:36:12;;;;;;;4.20;2.70;;;;;;;4.08;65.12;101630.09;107206;1247;72537;-74
2022/04/17 04:38:41;;;;;;;6.10;4.60;;;;;;;4.12;65.07;101629.46;107257;1247;61482;-72
2022/04/17 04:41:10;;;;;;;5.20;2.90;;;;;;;4.10;64.94;101632.48;107177;1247;61979;-73
2022/04/17 04:43:39;;;;;;;7.40;4.40;;;;;;;4.15;64.96;101628.50;107214;1247;74941;-73
2022/04/17 04:46:08;;;;;;;5.80;3.10;;;;;;;4.05;65.16;101631.77;107193;1247;73003;-73
2022/04/17 04:51:30;;;;;;;5.70;3.90;;;;;;;4.20;64.51;101633.17;107193;1248;74893;-71
2022/04/17 04:53:59;;;;;;;6.40;4.00;;;;;;;4.20;64.84;101641.11;107127;1247;60681;-70
2022/04/17 04:56:28;;;;;;;6.40;3.80;;;;;;;4.21;64.70;101644.54;107366;1248;60996;-70
2022/04/17 04:58:57;;;;;;;5.30;3.50;;;;;;;4.29;64.70;101645.17;107546;1247;74182;-68
2022/04/17 05:01:26;;;;;;;5.70;4.10;;;;;;;4.34;64.02;101652.59;107416;1247;72243;-68
2022/04/17 05:03:54;;;;;;;5.60;3.70;;;;;;;4.34;64.04;101655.33;107324;1247;70704;-67
2022/04/17 05:06:23;;;;;;;4.90;3.20;;;;;;;4.31;64.28;101656.48;107297;1248;74622;-68
2022/04/17 05:08:52;;;;;;;4.70;3.20;;;;;;;4.38;64.16;101657.27;107331;1249;59891;-69
2022/04/17 05:11:21;;;;;;;6.50;4.00;;;;;;;4.37;63.94;101652.48;107438;1248;59597;-70
2022/04/17 05:13:50;;;;;;;7.00;4.20;;;;;;;4.38;63.96;101657.98;107585;1247;70895;-68
2022/04/17 05:16:19;;;;;;;5.50;3.80;;;;;;;4.37;63.98;101656.82;107490;1247;70635;-68
2022/04/17 05:18:54;;;;;;;7.00;3.80;;;;;;;4.42;64.29;101647.66;107345;1248;68742;-68
2022/04/17 05:21:31;;;;;;;6.40;4.10;;;;;;;4.45;64.42;101641.20;107364;1247;72345;-69
2022/04/17 05:24:00;;;;;;;8.60;4.10;;;;;;;4.50;64.57;101633.60;107203;1249;59346;-69
2022/04/17 05:26:29;;;;;;;5.80;4.40;;;;;;;4.58;63.82;101633.88;107234;1247;59570;-70
2022/04/17 05:29:02;;;;;;;5.00;3.50;;;;;;;4.59;63.71;101633.14;107223;1247;71805;-70
2022/04/17 05:31:32;;;;;;;6.90;4.10;;;;;;;4.62;64.34;101636.49;107202;1249;69600;-71
2022/04/17 05:34:01;;;;;;;7.20;4.80;;;;;;;4.65;63.98;101633.29;107481;1247;69185;-70
2022/04/17 05:36:30;;;;;;;6.50;4.20;;;;;;;4.71;63.61;101628.77;107360;1247;72198;-71
2022/04/17 05:38:59;;;;;;;5.40;3.80;;;;;;;4.77;62.78;101629.09;107383;1247;58976;-70
2022/04/17 05:41:29;;;;;;;9.10;3.60;;;;;;;4.80;62.26;101630.21;107350;1247;59589;-70
2022/04/17 05:44:01;;;;;;;7.70;3.40;;;;;;;4.78;62.09;101624.94;107276;1247;71058;-70
2022/04/17 05:46:35;;;;;;;5.20;3.50;;;;;;;4.77;62.26;101620.99;107334;1247;70654;-71
2022/04/17 05:49:06;;;;;;;4.70;3.70;;;;;;;4.70;62.13;101628.81;107244;1247;69615;-69
2022/04/17 05:51:37;;;;;;;6.20;3.50;;;;;;;4.81;61.91;101635.70;107088;1248;74923;-70
2022/04/17 05:54:07;;;;;;;8.00;4.00;;;;;;;4.84;60.76;101630.09;107138;1248;59198;-68
2022/04/17 05:56:37;;;;;;;8.30;3.70;;;;;;;4.91;60.99;101636.41;107344;1247;60648;-71
2022/04/17 05:59:07;;;;;;;7.50;3.90;;;;;;;4.87;61.28;101631.20;107272;1247;72171;-71
2022/04/17 06:01:36;;;;;;;7.90;4.20;;;;;;;4.83;61.68;101624.94;107172;1247;70246;-70
2022/04/17 06:04:05;;;;;;;5.40;3.90;;;;;;;4.91;60.92;101624.83;107257;1247;68073;-71
2022/04/17 06:06:34;;;;;;;6.10;3.80;;;;;;;4.90;60.77;101615.54;107197;1248;72376;-67
2022/04/17 06:09:03;;;;;;;7.00;4.20;;;;;;;4.99;60.78;101613.32;107218;1247;59123;-68
2022/04/17 06:11:32;;;;;;;6.80;4.00;;;;;;;5.07;61.13;101617.90;107716;1249;60998;-67
2022/04/17 06:14:01;;;;;;;5.20;3.90;;;;;;;5.18;60.92;101637.02;107225;1247;71399;-69
2022/04/17 06:16:32;;;;;;;7.20;4.40;;;;;;;5.20;60.62;101641.77;107036;1251;72107;-75
2022/04/17 06:19:01;;;;;;;7.40;4.90;;;;;;;5.21;60.62;101631.73;107404;1247;69296;-75
2022/04/17 06:21:30;;;;;;;5.30;3.20;;;;;;;5.21;60.27;101634.16;107224;1248;74415;-72
2022/04/17 06:23:59;;;;;;;7.60;3.80;;;;;;;5.32;59.92;101642.38;107259;1248;59261;-77
2022/04/17 06:26:28;;;;;;;5.30;3.90;;;;;;;5.43;60.31;101645.10;107142;1249;58997;-72
2022/04/17 06:28:57;;;;;;;6.90;4.50;;;;;;;5.61;60.46;101639.80;107272;1247;72075;-72
2022/04/17 06:31:26;;;;;;;5.50;4.00;;;;;;;5.66;59.41;101633.72;107317;1247;69622;-74
2022/04/17 06:33:55;;;;;;;8.80;4.80;;;;;;;5.58;59.66;101644.21;107164;1248;69733;-71
2022/04/17 06:36:27;;;;;;;9.60;5.00;;;;;;;5.48;60.23;101641.48;107279;1247;74052;-74
2022/04/17 06:38:56;;;;;;;9.70;5.50;;;;;;;5.49;59.44;101639.35;107323;1248;60357;-72
2022/04/17 06:41:25;;;;;;;7.00;4.50;;;;;;;5.47;59.70;101644.95;107284;1248;60094;-74
2022/04/17 06:43:54;;;;;;;5.70;3.90;;;;;;;5.51;59.96;101642.06;107400;1248;72040;-72
2022/04/17 06:46:24;;;;;;;5.60;3.80;;;;;;;5.51;59.59;101633.92;107325;1249;70765;-73
2022/04/17 06:48:53;;;;;;;5.40;3.40;;;;;;;5.44;59.65;101631.91;107339;1247;70611;-75
2022/04/17 06:51:24;;;;;;;7.20;4.30;;;;;;;5.55;59.12;101629.12;107553;1248;72982;-77
2022/04/17 06:54:05;;;;;;;6.20;3.70;;;;;;;5.46;59.47;101634.78;107487;1248;61752;-76
2022/04/17 06:56:34;;;;;;;7.90;4.60;;;;;;;5.62;58.59;101654.09;107510;1248;60901;-76
2022/04/17 06:59:05;;;;;;;5.30;3.50;;;;;;;5.59;58.68;101662.17;107437;1247;71765;-72
2022/04/17 07:01:34;;;;;;;7.90;5.10;;;;;;;5.53;58.37;101650.08;107383;1248;72372;-73
2022/04/17 07:04:04;;;;;;;5.80;3.80;;;;;;;5.56;58.61;101649.64;107305;1249;71542;-80
2022/04/17 07:06:36;;;;;;;6.60;4.50;;;;;;;5.66;58.22;101648.95;107248;1249;75088;-75
2022/04/17 07:09:07;;;;;;;10.30;8.60;;;;;;;5.67;57.79;101655.66;107469;1249;58936;-75
2022/04/17 07:11:37;;;;;;;7.50;5.10;;;;;;;5.65;57.91;101646.72;107519;1248;59087;-77
2022/04/17 07:14:07;;;;;;;7.70;4.20;;;;;;;5.78;57.95;101648.64;107054;1254;71552;-73
2022/04/17 07:16:36;;;;;;;4.90;3.80;;;;;;;5.92;57.06;101649.89;106110;1251;950382;-75
2022/04/17 07:19:05;;;;;;;7.60;6.80;;;;;;;6.01;56.70;101649.36;107181;1249;70243;-75
2022/04/17 07:21:34;;;;;;;5.60;3.80;;;;;;;5.96;56.17;101637.45;107058;1251;72049;-76
2022/04/17 07:24:05;;;;;;;5.70;4.20;;;;;;;6.19;56.12;101625.83;107126;1249;60702;-75
2022/04/17 07:26:34;;;;;;;5.50;3.60;;;;;;;6.38;55.90;101627.52;107464;1247;59592;-76
2022/04/17 07:29:03;;;;;;;4.50;3.10;;;;;;;6.49;55.21;101624.14;107494;1247;72825;-77
2022/04/17 07:31:32;;;;;;;5.80;3.90;;;;;;;6.43;54.65;101622.48;107263;1249;69940;-76
2022/04/17 07:34:01;;;;;;;4.50;3.20;;;;;;;6.38;55.18;101623.39;107462;1250;69276;-74
2022/04/17 07:36:29;;;;;;;4.90;4.10;;;;;;;6.46;55.31;101623.91;107342;1247;74495;-76
2022/04/17 07:38:58;;;;;;;7.60;4.70;;;;;;;6.59;56.01;101623.20;107374;1247;59473;-75
2022/04/17 07:41:29;;;;;;;5.80;3.80;;;;;;;6.80;54.66;101622.48;107249;1249;59894;-75
2022/04/17 07:43:58;;;;;;;5.10;3.60;;;;;;;6.89;52.74;101618.98;107290;1247;71751;-75
2022/04/17 07:46:27;;;;;;;4.90;3.90;;;;;;;6.94;52.78;101623.11;107325;1247;70757;-73
2022/04/17 07:48:56;;;;;;;5.80;4.10;;;;;;;7.10;52.77;101620.88;107223;1247;70554;-73
2022/04/17 07:51:25;;;;;;;4.60;3.40;;;;;;;6.95;53.06;101619.95;107358;1247;73406;-73
2022/04/17 07:53:55;;;;;;;5.10;3.60;;;;;;;7.09;52.99;101614.14;107363;1248;59373;-73
2022/04/17 07:56:24;;;;;;;4.80;3.40;;;;;;;7.15;52.52;101614.76;107300;1247;59144;-73
2022/04/17 07:58:54;;;;;;;4.30;3.20;;;;;;;7.11;52.49;101600.02;107204;1248;70910;-73
2022/04/17 08:01:23;;;;;;;4.10;3.30;;;;;;;7.19;52.40;101594.47;107284;1250;70761;-74
2022/04/17 08:03:53;;;;;;;4.00;3.10;;;;;;;7.34;51.44;101595.89;107371;1247;71536;-72
2022/04/17 08:06:21;;;;;;;5.10;3.70;;;;;;;7.37;50.19;101590.37;107332;1248;73905;-72
2022/04/17 08:08:52;;;;;;;4.30;3.30;;;;;;;7.39;50.60;101586.64;107460;1248;60119;-73
2022/04/17 08:11:23;;;;;;;4.10;3.20;;;;;;;7.36;50.83;101590.60;107391;1249;60940;-72
2022/04/17 08:13:52;;;;;;;5.40;4.00;;;;;;;7.36;50.17;101586.11;108161;1248;72446;-77
2022/04/17 08:16:21;;;;;;;4.50;3.50;;;;;;;7.39;49.97;101576.79;108268;1247;69586;-74
2022/04/17 08:18:50;;;;;;;3.40;3.00;;;;;;;7.53;50.62;101578.71;107602;1248;70570;-72
2022/04/17 08:21:19;;;;;;;5.10;3.30;;;;;;;7.64;49.60;101575.63;107335;1248;74705;-73
2022/04/17 08:23:47;;;;;;;4.50;3.20;;;;;;;7.62;48.51;101582.63;107306;1249;61347;-73
2022/04/17 08:26:17;;;;;;;5.10;3.80;;;;;;;7.55;48.81;101577.23;107402;1247;59547;-73
2022/04/17 08:28:46;;;;;;;4.50;3.10;;;;;;;7.41;49.82;101577.73;107557;1248;73227;-72
2022/04/17 08:31:15;;;;;;;6.20;3.90;;;;;;;7.53;50.57;101573.02;107267;1249;73093;-72
2022/04/17 08:33:43;;;;;;;5.40;3.80;;;;;;;7.59;50.70;101572.41;107547;1247;71419;-72
2022/04/17 08:36:12;;;;;;;5.60;4.30;;;;;;;7.56;49.82;101573.25;107423;1249;73975;-74
2022/04/17 08:38:44;;;;;;;4.70;3.90;;;;;;;7.63;49.82;101569.42;107384;1250;59126;-72
2022/04/17 08:41:15;;;;;;;4.30;3.20;;;;;;;7.52;49.80;101563.35;107392;1249;61316;-73
2022/04/17 08:43:46;;;;;;;4.10;3.10;;;;;;;7.45;49.93;101569.07;107402;1249;72212;-72
2022/04/17 08:46:15;;;;;;;4.10;3.10;;;;;;;7.33;49.75;101568.56;107455;1250;71930;-72
2022/04/17 08:48:45;;;;;;;4.80;3.20;;;;;;;7.24;49.77;101563.59;107516;1250;68779;-73
2022/04/17 08:51:14;;;;;;;4.50;3.50;;;;;;;7.37;49.93;101560.75;107308;1249;74425;-72
2022/04/17 08:53:44;;;;;;;5.20;3.50;;;;;;;7.64;49.36;101564.69;107270;1249;60248;-71
2022/04/17 08:56:12;;;;;;;5.10;3.20;;;;;;;7.90;48.90;101549.27;107156;1249;62219;-73
2022/04/17 08:58:42;;;;;;;4.20;2.80;;;;;;;7.95;48.19;101555.45;107240;1249;74458;-72
2022/04/17 09:01:18;;;;;;;4.80;3.10;;;;;;;8.01;48.34;101557.24;107389;1249;70055;-72
2022/04/17 09:03:47;;;;;;;5.00;3.50;;;;;;;7.98;48.10;101559.44;107157;1250;69752;-71
2022/04/17 09:06:21;;;;;;;4.10;3.10;;;;;;;8.01;48.64;101548.05;107271;1249;74039;-72
2022/04/17 09:09:04;;;;;;;5.10;3.40;;;;;;;7.87;49.39;101542.29;107437;1249;60089;-72
2022/04/17 09:11:34;;;;;;;;;;;;;;;8.08;49.05;101547.36;107062;1251;59373;-72
2022/04/17 09:14:05;;;;;;;5.20;2.90;;;;;;;7.99;48.46;101546.55;107274;1249;72104;-71
2022/04/17 09:16:38;;;;;;;4.30;3.00;;;;;;;7.88;48.92;101539.47;107220;1249;72305;-71
2022/04/17 09:19:19;;;;;;;4.60;2.70;;;;;;;8.00;48.66;101539.79;107217;1251;68416;-72
2022/04/17 09:21:55;;;;;;;5.80;3.30;;;;;;;7.83;47.95;101543.37;107437;1247;72734;-72
2022/04/17 09:24:27;;;;;;;4.50;3.30;;;;;;;7.91;48.36;101546.95;107482;1247;58873;-71
2022/04/17 09:26:59;;;;;;;6.20;3.20;;;;;;;8.01;48.96;101538.54;107650;1247;61287;-72
2022/04/17 09:29:31;;;;;;;4.00;3.00;;;;;;;8.28;48.53;101531.45;107472;1249;73814;-72
2022/04/17 09:32:05;;;;;;;5.80;3.40;;;;;;;8.47;47.60;101526.53;107377;1249;70807;-72
2022/04/17 09:34:56;;;;;;;5.10;3.20;;;;;;;8.63;46.69;101523.30;107655;1247;67886;-75
2022/04/17 09:37:30;;;;;;;4.40;2.60;;;;;;;8.83;45.45;101517.42;107555;1247;72354;-75
2022/04/17 09:40:07;;;;;;;4.70;3.10;;;;;;;8.90;44.51;101516.70;107916;1247;60483;-75
2022/04/17 09:42:36;;;;;;;3.70;2.70;;;;;;;8.88;44.15;101517.99;107639;1249;59752;-72
2022/04/17 09:45:07;;;;;;;2.00;1.60;;;;;;;8.88;43.99;101515.39;107684;1248;73529;-71
2022/04/17 09:47:36;;;;;;;3.20;2.10;;;;;;;8.95;42.81;101513.11;107685;1247;70832;-73
2022/04/17 09:50:08;;;;;;;3.60;2.60;;;;;;;8.91;42.56;101511.42;107404;1248;71826;-73
2022/04/17 09:52:48;;;;;;;3.30;2.40;;;;;;;8.92;42.64;101510.67;107377;1247;74272;-73
2022/04/17 09:55:31;;;;;;;3.10;2.20;;;;;;;9.18;41.82;101501.11;107359;1248;60175;-73
2022/04/17 09:58:00;;;;;;;3.10;1.90;;;;;;;9.24;42.70;101502.02;107595;1247;60032;-73
2022/04/17 10:00:41;;;;;;;3.60;2.40;;;;;;;9.41;41.22;101502.28;107402;1248;72010;-71
2022/04/17 10:03:10;;;;;;;3.60;2.00;;;;;;;9.30;41.04;101504.80;107442;1247;70318;-72
2022/04/17 10:05:41;;;;;;;3.20;2.00;;;;;;;9.20;41.57;101498.59;107658;1246;69964;-72
2022/04/17 10:08:10;;;;;;;4.10;2.50;;;;;;;9.36;41.71;101492.64;107265;1249;72917;-71
2022/04/17 10:10:40;;;;;;;3.30;2.30;;;;;;;9.35;41.88;101488.20;107417;1248;59633;-74
2022/04/17 10:13:10;;;;;;;3.70;2.30;;;;;;;9.41;40.88;101491.72;107342;1249;59163;-74
2022/04/17 10:15:40;;;;;;;3.90;2.70;;;;;;;9.64;40.86;101484.85;107493;1248;72936;-74
2022/04/17 10:18:10;;;;;;;4.00;2.40;;;;;;;9.70;40.96;101484.33;107517;1248;69336;-72
2022/04/17 10:20:40;;;;;;;4.10;2.70;;;;;;;9.81;40.98;101485.13;107379;1247;68035;-70
2022/04/17 10:23:11;;;;;;;3.50;2.30;;;;;;;9.47;40.93;101488.25;107422;1247;72703;-75
2022/04/17 10:25:42;;;;;;;3.60;1.80;;;;;;;9.47;40.59;101488.73;107360;1247;62656;-73
2022/04/17 10:28:13;;;;;;;3.80;1.90;;;;;;;9.30;41.39;101491.07;107304;1247;59943;-72
2022/04/17 10:31:02;;;;;;;2.70;1.90;;;;;;;9.89;40.27;101488.63;107049;1248;73734;-73
2022/04/17 10:33:49;;;;;;;4.90;2.40;;;;;;;9.60;40.53;101493.91;107675;1247;70398;-73
2022/04/17 10:36:39;;;;;;;3.90;2.70;;;;;;;9.97;41.19;101484.54;107482;1247;68717;-72
2022/04/17 10:39:38;;;;;;;3.40;2.30;;;;;;;9.93;40.42;101480.58;107234;1247;74364;-74
2022/04/17 10:42:09;;;;;;;3.10;2.20;;;;;;;10.35;39.79;101482.17;107282;1248;62167;-71
2022/04/17 10:44:41;;;;;;;3.40;1.90;;;;;;;10.58;38.95;101490.73;107374;1247;60651;-73
2022/04/17 10:47:20;;;;;;;2.20;1.60;;;;;;;10.51;37.93;101485.20;107369;1246;72381;-71
2022/04/17 10:49:57;;;;;;;3.70;2.40;;;;;;;10.27;37.54;101477.23;107427;1246;70456;-74
2022/04/17 10:52:31;;;;;;;2.50;1.60;;;;;;;10.20;37.44;101479.04;107381;1247;69500;-74
2022/04/17 10:55:12;;;;;;;3.10;2.00;;;;;;;10.20;38.14;101469.95;107353;1247;73241;-76
2022/04/17 10:57:48;;;;;;;3.60;2.20;;;;;;;9.82;40.48;101473.92;107013;1249;61662;-73
2022/04/17 11:00:28;;;;;;;3.70;2.50;;;;;;;9.42;41.49;101469.05;106985;1250;60029;-71
2022/04/17 11:03:23;;;;;;;4.00;2.10;;;;;;;9.48;41.36;101460.38;107158;1249;72946;-73
2022/04/17 11:08:49;;;;;;;3.70;2.30;;;;;;;9.71;40.91;101454.38;107668;1247;71219;-75
2022/04/17 11:11:18;;;;;;;3.80;2.50;;;;;;;9.93;40.64;101463.56;107469;1248;74703;-72
2022/04/17 11:14:19;;;;;;;4.40;3.00;;;;;;;9.76;41.04;101461.73;107440;1249;60494;-70
2022/04/17 11:16:53;;;;;;;5.00;2.60;;;;;;;9.69;41.52;101465.25;107419;1249;60650;-70
2022/04/17 11:19:30;;;;;;;3.80;2.30;;;;;;;9.53;40.89;101460.95;107282;1249;73721;-69
2022/04/17 11:22:04;;;;;;;3.40;1.90;;;;;;;9.62;41.08;101460.97;107138;1249;69969;-74
2022/04/17 11:24:55;;;;;;;2.80;2.00;;;;;;;9.62;41.08;101465.10;107589;1247;69867;-73
2022/04/17 11:27:45;;;;;;;2.20;1.80;;;;;;;9.44;40.96;101469.25;107462;1249;72945;-72
2022/04/17 11:30:35;;;;;;;2.70;2.00;;;;;;;9.76;39.41;101469.54;107338;1249;58975;-66
2022/04/17 11:33:07;;;;;;;4.10;2.00;;;;;;;9.94;39.50;101469.41;107789;1247;62227;-75
2022/04/17 11:35:40;;;;;;;2.50;2.10;;;;;;;10.14;39.00;101461.95;107368;1249;75456;-75
2022/04/17 11:38:10;;;;;;;2.80;2.10;;;;;;;10.36;38.38;101461.39;107712;1249;70809;-73
2022/04/17 11:40:41;;;;;;;2.90;1.60;;;;;;;10.49;37.60;101459.38;107365;1249;69714;-73
2022/04/17 11:43:14;;;;;;;3.60;2.30;;;;;;;10.84;36.32;101464.58;107587;1249;71242;-74
2022/04/17 11:45:47;;;;;;;3.20;1.70;;;;;;;10.96;36.33;101454.60;107278;1249;60619;-75
2022/04/17 11:48:19;;;;;;;3.20;1.60;;;;;;;11.42;35.74;101457.12;107365;1248;60431;-76
2022/04/17 11:50:55;;;;;;;3.40;2.30;;;;;;;11.37;35.45;101456.55;107301;1248;74260;-75
2022/04/17 11:53:24;;;;;;;3.00;1.80;;;;;;;11.31;35.41;101457.62;107591;1248;72711;-74
2022/04/17 11:55:53;;;;;;;3.10;1.90;;;;;;;11.44;35.39;101454.73;107577;1249;69704;-78
2022/04/17 11:58:24;;;;;;;4.70;2.30;;;;;;;11.58;35.15;101437.38;107587;1247;73681;-73
2022/04/17 12:00:58;;;;;;;2.40;1.70;;;;;;;11.66;35.40;101437.40;107443;1247;59573;-72
2022/04/17 12:03:46;;;;;;;3.70;1.80;;;;;;;11.88;34.85;101442.30;107444;1248;60375;-73